createdAt,value
2018-06-19T00:02:28.766Z,69.38
2018-06-19T00:04:57.943Z,69.71
2018-06-19T00:07:27.111Z,69.60
2018-06-19T00:10:02.924Z,69.67
2018-06-19T00:12:31.956Z,69.87
2018-06-19T00:15:01.141Z,69.66
2018-06-19T00:17:30.318Z,70.32
2018-06-19T00:19:59.507Z,70.04
2018-06-19T00:22:29.247Z,70.48
2018-06-19T00:24:58.402Z,70.39
2018-06-19T00:27:27.558Z,70.89
2018-06-19T00:29:56.718Z,70.57
2018-06-19T00:32:25.895Z,70.55
2018-06-19T00:34:55.068Z,71.29
2018-06-19T00:37:24.230Z,71.45
2018-06-19T00:39:53.447Z,71.19
2018-06-19T00:42:22.620Z,71.88
2018-06-19T00:44:51.778Z,71.35
2018-06-19T00:47:20.940Z,71.14
2018-06-19T00:49:50.116Z,70.99
2018-06-19T00:52:19.283Z,71.30
2018-06-19T00:54:48.444Z,71.50
2018-06-19T00:57:17.612Z,71.73
2018-06-19T00:59:46.766Z,72.09
2018-06-19T01:02:15.947Z,72.18
2018-06-19T01:04:45.114Z,72.56
2018-06-19T01:07:14.299Z,72.46
2018-06-19T01:09:43.459Z,73.59
2018-06-19T01:12:12.604Z,72.81
2018-06-19T01:14:41.769Z,73.19
2018-06-19T01:17:10.941Z,73.03
2018-06-19T01:19:40.095Z,73.28
2018-06-19T01:22:09.267Z,73.46
2018-06-19T01:24:38.412Z,73.00
2018-06-19T01:27:07.572Z,73.81
2018-06-19T01:29:36.751Z,73.72
2018-06-19T01:32:06.688Z,73.30
2018-06-19T01:34:35.854Z,73.95
2018-06-19T01:37:05.004Z,73.82
2018-06-19T01:39:34.171Z,73.83
2018-06-19T01:42:03.344Z,74.06
2018-06-19T01:44:32.505Z,74.26
2018-06-19T01:47:01.663Z,74.09
2018-06-19T01:49:30.837Z,74.56
2018-06-19T01:51:59.991Z,73.99
2018-06-19T01:54:29.146Z,74.83
2018-06-19T01:56:58.311Z,75.28
2018-06-19T01:59:27.471Z,74.98
2018-06-19T02:01:56.716Z,75.97
2018-06-19T02:04:25.892Z,75.22
2018-06-19T02:06:55.204Z,75.17
2018-06-19T02:09:24.358Z,75.40
2018-06-19T02:11:53.528Z,74.95
2018-06-19T02:14:22.691Z,75.57
2018-06-19T02:16:51.629Z,75.57
2018-06-19T02:19:20.791Z,75.97
2018-06-19T02:21:49.982Z,76.07
2018-06-19T02:24:18.919Z,76.26
2018-06-19T02:26:48.084Z,76.32
2018-06-19T02:29:17.360Z,76.16
2018-06-19T02:31:46.527Z,76.53
2018-06-19T02:34:15.688Z,77.64
2018-06-19T02:36:44.847Z,76.92
2018-06-19T02:39:14.010Z,76.77
2018-06-19T02:41:43.174Z,76.79
2018-06-19T02:44:12.330Z,77.93
2018-06-19T02:46:41.513Z,77.34
2018-06-19T02:49:10.668Z,77.64
2018-06-19T02:51:39.838Z,78.23
2018-06-19T02:54:08.774Z,78.51
2018-06-19T02:56:37.943Z,78.00
2018-06-19T02:59:07.108Z,78.35
2018-06-19T03:01:36.264Z,78.53
2018-06-19T03:04:05.469Z,78.66
2018-06-19T03:06:34.616Z,78.96
2018-06-19T03:09:03.622Z,78.58
2018-06-19T03:11:32.785Z,79.16
2018-06-19T03:14:01.948Z,79.37
2018-06-19T03:16:31.100Z,79.53
2018-06-19T03:19:00.028Z,79.50
2018-06-19T03:21:29.188Z,79.81
2018-06-19T03:23:58.354Z,80.40
2018-06-19T03:26:27.675Z,80.20
2018-06-19T03:28:56.842Z,80.04
2018-06-19T03:31:26.009Z,80.73
2018-06-19T03:33:55.401Z,81.03
2018-06-19T03:36:24.567Z,80.46
2018-06-19T03:38:53.744Z,81.06
2018-06-19T03:41:22.904Z,81.29
2018-06-19T03:43:52.306Z,81.08
2018-06-19T03:46:21.469Z,81.24
2018-06-19T03:48:50.406Z,80.73
2018-06-19T03:51:19.568Z,80.92
2018-06-19T03:53:48.787Z,80.71
2018-06-19T03:56:17.939Z,80.70
2018-06-19T03:58:46.874Z,80.46
2018-06-19T04:01:16.119Z,80.29
2018-06-19T04:03:45.227Z,80.86
2018-06-19T04:06:14.403Z,80.90
2018-06-19T04:08:43.568Z,81.09
2018-06-19T04:11:12.812Z,80.10
2018-06-19T04:13:41.981Z,80.31
2018-06-19T04:16:11.139Z,80.67
2018-06-19T04:18:40.299Z,80.68
2018-06-19T04:21:09.484Z,80.55
2018-06-19T04:23:38.638Z,80.80
2018-06-19T04:26:07.803Z,80.65
2018-06-19T04:28:36.728Z,81.10
2018-06-19T04:31:05.928Z,80.82
2018-06-19T04:33:35.099Z,81.42
2018-06-19T04:36:04.269Z,81.17
2018-06-19T04:38:33.427Z,80.79
2018-06-19T04:41:02.592Z,80.73
2018-06-19T04:43:31.755Z,79.87
2018-06-19T04:46:01.084Z,80.69
2018-06-19T04:48:30.290Z,81.52
2018-06-19T04:50:59.489Z,80.41
2018-06-19T04:53:29.178Z,80.52
2018-06-19T04:55:58.119Z,80.66
2018-06-19T04:58:27.267Z,80.33
2018-06-19T05:00:56.199Z,80.16
2018-06-19T05:03:25.370Z,80.52
2018-06-19T05:05:54.524Z,80.42
2018-06-19T05:08:23.696Z,80.17
2018-06-19T05:10:52.860Z,80.14
2018-06-19T05:13:22.022Z,79.72
2018-06-19T05:15:51.189Z,79.82
2018-06-19T05:18:20.359Z,79.28
2018-06-19T05:20:49.531Z,79.28
2018-06-19T05:23:18.460Z,79.31
2018-06-19T05:25:47.640Z,79.61
2018-06-19T05:28:16.799Z,79.06
2018-06-19T05:30:45.956Z,78.53
2018-06-19T05:33:15.122Z,78.31
2018-06-19T05:35:44.283Z,77.98
2018-06-19T05:38:13.437Z,78.37
2018-06-19T05:40:42.597Z,77.36
2018-06-19T05:43:11.767Z,77.43
2018-06-19T05:45:40.932Z,78.44
2018-06-19T05:48:10.092Z,78.03
2018-06-19T05:50:39.024Z,77.69
2018-06-19T05:53:08.336Z,78.27
2018-06-19T05:55:37.476Z,77.33
2018-06-19T05:58:06.670Z,76.57
2018-06-19T06:00:35.599Z,77.38
2018-06-19T06:03:04.805Z,76.50
2018-06-19T06:05:33.998Z,76.74
2018-06-19T06:08:03.125Z,75.37
2018-06-19T06:10:32.291Z,76.74
2018-06-19T06:13:01.442Z,77.04
2018-06-19T06:15:30.626Z,74.42
2018-06-19T06:17:59.767Z,76.03
2018-06-19T06:20:29.146Z,75.16
2018-06-19T06:22:58.310Z,74.85
2018-06-19T06:25:27.480Z,73.56
2018-06-19T06:27:56.656Z,74.64
2018-06-19T06:30:25.812Z,73.70
2018-06-19T06:32:54.976Z,72.47
2018-06-19T06:35:24.162Z,72.54
2018-06-19T06:37:53.339Z,71.92
2018-06-19T06:40:22.508Z,73.06
2018-06-19T06:42:52.028Z,72.92
2018-06-19T06:45:21.192Z,71.73
2018-06-19T06:47:50.362Z,71.87
2018-06-19T06:50:19.572Z,72.45
2018-06-19T06:52:48.697Z,73.36
2018-06-19T06:55:17.868Z,71.98
2018-06-19T06:57:47.040Z,71.97
2018-06-19T07:00:16.210Z,72.32
2018-06-19T07:02:45.132Z,71.23
2018-06-19T07:05:14.317Z,70.79
2018-06-19T07:07:43.540Z,72.36
2018-06-19T07:10:12.727Z,71.49
2018-06-19T07:12:41.828Z,72.36
2018-06-19T07:15:11.013Z,71.99
2018-06-19T07:17:40.181Z,71.36
2018-06-19T07:20:09.351Z,70.72
2018-06-19T07:22:38.513Z,70.15
2018-06-19T07:25:07.685Z,70.36
2018-06-19T07:27:36.903Z,69.90
2018-06-19T07:30:06.090Z,69.12
2018-06-19T07:32:35.252Z,69.02
2018-06-19T07:35:04.535Z,71.36
2018-06-19T07:37:33.710Z,68.86
2018-06-19T07:40:02.889Z,67.83
2018-06-19T07:42:32.048Z,65.73
2018-06-19T07:45:01.241Z,65.68
2018-06-19T07:47:30.429Z,66.12
2018-06-19T07:49:59.608Z,64.76
2018-06-19T07:52:29.269Z,65.06
2018-06-19T07:54:58.440Z,64.34
2018-06-19T07:57:27.617Z,65.05
2018-06-19T07:59:56.815Z,64.08
2018-06-19T08:02:25.987Z,65.03
2018-06-19T08:04:55.163Z,64.29
2018-06-19T08:07:24.346Z,64.52
2018-06-19T08:09:53.561Z,63.63
2018-06-19T08:12:22.725Z,63.15
2018-06-19T08:14:51.899Z,62.99
2018-06-19T08:17:21.076Z,62.60
2018-06-19T08:19:50.248Z,62.92
2018-06-19T08:22:19.423Z,63.23
2018-06-19T08:24:48.603Z,63.55
2018-06-19T08:27:17.771Z,63.96
2018-06-19T08:29:46.964Z,61.60
2018-06-19T08:32:16.155Z,60.99
2018-06-19T08:34:45.309Z,61.52
2018-06-19T08:37:14.257Z,62.36
2018-06-19T08:39:43.420Z,60.25
2018-06-19T08:42:13.234Z,60.47
2018-06-19T08:44:42.392Z,61.74
2018-06-19T08:47:11.588Z,60.37
2018-06-19T08:49:40.759Z,62.93
2018-06-19T08:52:09.931Z,62.51
2018-06-19T08:54:39.113Z,60.30
2018-06-19T08:57:08.271Z,59.59
2018-06-19T08:59:37.428Z,58.95
2018-06-19T09:02:06.621Z,58.70
2018-06-19T09:04:35.808Z,59.41
2018-06-19T09:07:05.124Z,58.13
2018-06-19T09:09:34.293Z,58.22
2018-06-19T09:12:03.495Z,57.42
2018-06-19T09:14:32.677Z,58.33
2018-06-19T09:17:01.872Z,58.66
2018-06-19T09:19:31.100Z,58.47
2018-06-19T09:22:00.273Z,57.29
2018-06-19T09:24:29.216Z,56.98
2018-06-19T09:26:58.385Z,55.45
2018-06-19T09:29:27.573Z,56.83
2018-06-19T09:31:56.787Z,56.31
2018-06-19T09:34:26.040Z,55.76
2018-06-19T09:36:55.212Z,55.74
2018-06-19T09:39:24.379Z,56.52
2018-06-19T09:41:53.532Z,55.42
2018-06-19T09:44:22.704Z,55.16
2018-06-19T09:46:51.884Z,56.60
2018-06-19T09:49:21.067Z,55.84
2018-06-19T09:51:50.693Z,54.49
2018-06-19T09:54:19.884Z,53.33
2018-06-19T09:56:49.866Z,56.28
2018-06-19T09:59:19.093Z,56.14
2018-06-19T10:01:48.192Z,57.15
2018-06-19T10:04:17.389Z,57.17
2018-06-19T10:06:46.545Z,57.33
2018-06-19T10:09:15.730Z,56.84
2018-06-19T10:11:44.890Z,56.58
2018-06-19T10:14:14.077Z,54.49
2018-06-19T10:16:43.269Z,54.04
2018-06-19T10:19:12.440Z,56.22
2018-06-19T10:21:41.873Z,56.86
2018-06-19T10:24:11.036Z,57.32
2018-06-19T10:26:40.221Z,55.33
2018-06-19T10:29:09.151Z,54.31
2018-06-19T10:31:38.324Z,52.97
2018-06-19T10:34:07.495Z,52.41
2018-06-19T10:36:36.450Z,52.31
2018-06-19T10:39:09.247Z,53.48
2018-06-19T10:41:38.430Z,54.95
2018-06-19T10:44:07.776Z,54.59
2018-06-19T10:46:36.984Z,54.14
2018-06-19T10:49:06.168Z,52.42
2018-06-19T10:51:35.347Z,52.21
2018-06-19T10:54:04.552Z,52.21
2018-06-19T10:56:33.828Z,54.68
2018-06-19T10:59:03.082Z,54.77
2018-06-19T11:01:32.274Z,55.16
2018-06-19T11:04:01.472Z,53.56
2018-06-19T11:06:30.644Z,51.25
2018-06-19T11:08:59.818Z,51.05
2018-06-19T11:11:29.040Z,50.49
2018-06-19T11:13:58.238Z,52.21
2018-06-19T11:16:27.405Z,54.17
2018-06-19T11:18:56.586Z,54.12
2018-06-19T11:21:25.806Z,53.07
2018-06-19T11:23:55.009Z,53.14
2018-06-19T11:26:24.137Z,53.71
2018-06-19T11:28:53.335Z,52.19
2018-06-19T11:31:22.528Z,48.27
2018-06-19T11:33:51.696Z,51.13
2018-06-19T11:36:20.873Z,49.97
2018-06-19T11:38:50.053Z,50.89
2018-06-19T11:41:19.217Z,52.14
2018-06-19T11:43:48.166Z,51.70
2018-06-19T11:46:17.327Z,50.84
2018-06-19T11:48:46.516Z,51.46
2018-06-19T11:51:15.687Z,50.91
2018-06-19T11:53:44.865Z,53.13
2018-06-19T11:56:14.060Z,52.46
2018-06-19T11:58:43.227Z,52.91
2018-06-19T12:01:12.446Z,53.34
2018-06-19T12:03:41.588Z,52.52
2018-06-19T12:06:10.775Z,51.56
2018-06-19T12:08:39.952Z,51.89
2018-06-19T12:11:09.146Z,53.80
2018-06-19T12:13:38.319Z,52.54
2018-06-19T12:16:07.484Z,52.06
2018-06-19T12:18:36.676Z,50.06
2018-06-19T12:21:05.888Z,51.01
2018-06-19T12:23:35.065Z,52.60
2018-06-19T12:26:04.241Z,52.13
2018-06-19T12:28:33.412Z,54.91
2018-06-19T12:31:02.576Z,53.31
2018-06-19T12:33:31.768Z,54.64
2018-06-19T12:36:00.941Z,53.15
2018-06-19T12:38:29.889Z,50.99
2018-06-19T12:40:59.103Z,51.69
2018-06-19T12:43:28.252Z,51.38
2018-06-19T12:45:57.445Z,50.64
2018-06-19T12:48:26.607Z,47.93
2018-06-19T12:52:13.601Z,53.14
2018-06-19T12:56:23.206Z,52.81
2018-06-19T12:58:52.388Z,51.91
2018-06-19T13:01:21.563Z,51.29
2018-06-19T13:04:07.766Z,50.51
2018-06-19T13:06:37.424Z,49.32
2018-06-19T13:09:08.738Z,48.35
2018-06-19T13:11:37.995Z,43.22
2018-06-19T13:14:24.324Z,42.89
2018-06-19T13:18:14.601Z,49.13
2018-06-19T13:20:49.429Z,44.99
2018-06-19T13:23:18.674Z,46.17
2018-06-19T13:25:47.858Z,46.46
2018-06-19T13:28:17.028Z,49.61
2018-06-19T13:31:49.945Z,49.41
2018-06-19T13:34:19.193Z,46.22
2018-06-19T13:36:48.385Z,44.17
2018-06-19T13:39:17.557Z,49.23
2018-06-19T13:43:05.057Z,48.89
2018-06-19T13:45:34.219Z,51.76
2018-06-19T13:48:03.404Z,45.30
2018-06-19T13:50:32.607Z,45.46
2018-06-19T13:53:01.813Z,45.32
2018-06-19T13:56:14.347Z,47.55
2018-06-19T13:58:43.526Z,45.65
2018-06-19T14:01:12.706Z,49.87
2018-06-19T14:03:41.892Z,50.09
2018-06-19T14:06:11.076Z,46.78
2018-06-19T14:08:53.522Z,45.97
2018-06-19T14:11:39.825Z,44.67
2018-06-19T14:14:09.020Z,46.50
2018-06-19T14:16:38.233Z,41.68
2018-06-19T14:19:07.442Z,41.99
2018-06-19T14:21:36.591Z,45.93
2018-06-19T14:24:05.760Z,44.96
2018-06-19T14:26:34.934Z,45.49
2018-06-19T14:29:04.111Z,44.19
2018-06-19T14:31:33.307Z,44.64
2018-06-19T14:34:02.519Z,45.34
2018-06-19T14:36:31.660Z,45.18
2018-06-19T14:39:00.880Z,43.15
2018-06-19T14:41:29.772Z,46.24
2018-06-19T14:43:58.956Z,49.07
2018-06-19T14:46:28.119Z,47.70
2018-06-19T14:48:57.307Z,45.57
2018-06-19T14:51:26.510Z,48.12
2018-06-19T14:53:55.691Z,48.19
2018-06-19T14:56:24.868Z,45.27
2018-06-19T14:58:54.376Z,44.17
2018-06-19T15:01:23.549Z,44.45
2018-06-19T15:03:52.740Z,42.67
2018-06-19T15:06:21.908Z,41.45
2018-06-19T15:08:51.089Z,44.10
2018-06-19T15:11:20.249Z,48.57
2018-06-19T15:13:49.412Z,48.75
2018-06-19T15:16:18.575Z,46.60
2018-06-19T15:18:47.777Z,43.52
2018-06-19T15:21:16.944Z,42.83
2018-06-19T15:23:46.152Z,47.18
2018-06-19T15:26:15.332Z,50.84
2018-06-19T15:28:44.480Z,48.87
2018-06-19T15:31:13.664Z,46.51
2018-06-19T15:33:42.836Z,48.11
2018-06-19T15:36:12.020Z,48.98
2018-06-19T15:38:41.209Z,46.72
2018-06-19T15:41:10.384Z,47.78
2018-06-19T15:43:39.548Z,49.77
2018-06-19T15:46:08.811Z,51.08
2018-06-19T15:48:37.994Z,52.61
2018-06-19T15:51:07.187Z,52.54
2018-06-19T15:53:36.378Z,54.07
2018-06-19T15:56:05.579Z,51.08
2018-06-19T15:58:34.755Z,48.30
2018-06-19T16:01:03.702Z,50.38
2018-06-19T16:03:32.876Z,50.58
2018-06-19T16:06:02.060Z,52.28
2018-06-19T16:08:31.221Z,52.74
2018-06-19T16:11:00.446Z,53.53
2018-06-19T16:13:29.388Z,53.95
2018-06-19T16:15:58.557Z,50.93
2018-06-19T16:18:27.727Z,46.41
2018-06-19T16:20:56.913Z,44.43
2018-06-19T16:23:26.083Z,49.99
2018-06-19T16:25:55.290Z,51.55
2018-06-19T16:28:24.448Z,53.33
2018-06-19T16:30:53.638Z,55.09
2018-06-19T16:33:22.796Z,54.97
2018-06-19T16:35:51.989Z,53.14
2018-06-19T16:38:21.161Z,49.88
2018-06-19T16:40:50.324Z,51.31
2018-06-19T16:43:19.529Z,52.08
2018-06-19T16:45:48.711Z,53.24
2018-06-19T16:48:17.904Z,52.15
2018-06-19T16:50:47.089Z,54.11
2018-06-19T16:53:16.276Z,52.97
2018-06-19T16:55:45.448Z,53.21
2018-06-19T16:58:14.640Z,53.91
2018-06-19T17:00:43.824Z,53.33
2018-06-19T17:03:13.021Z,52.81
2018-06-19T17:05:42.209Z,48.66
2018-06-19T17:08:11.385Z,50.68
2018-06-19T17:10:40.625Z,51.55
2018-06-19T17:13:09.784Z,50.99
2018-06-19T17:15:39.627Z,50.73
2018-06-19T17:18:09.507Z,51.49
2018-06-19T17:20:38.702Z,50.66
2018-06-19T17:23:07.867Z,49.37
2018-06-19T17:25:37.036Z,43.54
2018-06-19T17:28:10.238Z,45.05
2018-06-19T17:30:39.259Z,44.23
2018-06-19T17:33:08.494Z,44.00
2018-06-19T17:35:37.755Z,45.00
2018-06-19T17:38:08.725Z,44.31
2018-06-19T17:40:37.941Z,46.88
2018-06-19T17:43:06.867Z,46.13
2018-06-19T17:45:36.056Z,47.70
2018-06-19T17:48:05.329Z,47.96
2018-06-19T17:50:34.499Z,48.20
2018-06-19T17:53:03.685Z,48.52
2018-06-19T17:55:32.869Z,47.02
2018-06-19T17:58:02.071Z,48.05
2018-06-19T18:00:31.237Z,48.25
2018-06-19T18:03:00.421Z,47.02
2018-06-19T18:05:29.600Z,48.79
2018-06-19T18:07:58.779Z,47.53
2018-06-19T18:10:27.940Z,48.35
2018-06-19T18:12:57.124Z,53.37
2018-06-19T18:15:26.391Z,54.91
2018-06-19T18:17:55.568Z,55.92
2018-06-19T18:20:24.745Z,57.08
2018-06-19T18:22:53.683Z,58.33
2018-06-19T18:25:22.908Z,58.93
2018-06-19T18:27:52.134Z,59.63
2018-06-19T18:30:21.360Z,60.27
2018-06-19T18:32:50.564Z,60.12
2018-06-19T18:35:19.897Z,60.74
2018-06-19T18:37:49.067Z,61.19
2018-06-19T18:40:18.244Z,61.79
2018-06-19T18:42:47.445Z,62.59
2018-06-19T18:45:16.755Z,62.68
2018-06-19T18:47:45.940Z,62.88
2018-06-19T18:50:15.139Z,63.45
2018-06-19T18:52:44.409Z,64.06
2018-06-19T18:55:13.612Z,64.04
2018-06-19T18:57:42.828Z,64.41
2018-06-19T19:00:12.129Z,65.43
2018-06-19T19:02:41.400Z,65.76
2018-06-19T19:05:10.671Z,66.46
2018-06-19T19:07:39.956Z,65.90
2018-06-19T19:10:14.569Z,66.85
2018-06-19T19:12:43.835Z,67.85
2018-06-19T19:15:18.364Z,67.57
2018-06-19T19:18:50.157Z,67.40
2018-06-19T19:21:19.349Z,67.48
2018-06-19T19:23:48.564Z,67.08
2018-06-19T19:26:18.987Z,67.38
2018-06-19T19:28:53.525Z,67.90
2018-06-19T19:31:22.741Z,68.46
2018-06-19T19:33:51.979Z,68.41
2018-06-19T19:36:26.494Z,68.30
2018-06-19T19:39:00.805Z,68.98
2018-06-19T19:41:29.984Z,69.34
2018-06-19T19:43:59.159Z,68.99
2018-06-19T19:46:33.591Z,68.89
2018-06-19T19:49:02.809Z,69.04
2018-06-19T19:51:32.054Z,69.61
2018-06-19T19:54:01.417Z,69.30
2018-06-19T19:56:36.073Z,69.80
2018-06-19T19:59:05.656Z,69.21
2018-06-19T20:01:35.192Z,70.53
2018-06-19T20:04:04.663Z,70.51
2018-06-19T20:06:34.089Z,70.87
2018-06-19T20:09:04.090Z,70.62
2018-06-19T20:11:33.157Z,70.73
2018-06-19T20:14:02.303Z,71.07
2018-06-19T20:16:31.486Z,70.45
2018-06-19T20:19:00.655Z,70.76
2018-06-19T20:21:29.840Z,70.61
2018-06-19T20:23:59.065Z,70.41
2018-06-19T20:26:28.255Z,70.66
2018-06-19T20:28:57.432Z,69.94
2018-06-19T20:31:26.612Z,70.34
2018-06-19T20:33:56.082Z,70.34
2018-06-19T20:36:25.291Z,70.71
2018-06-19T20:38:54.448Z,70.89
2018-06-19T20:41:23.634Z,70.89
2018-06-19T20:43:52.832Z,70.83
2018-06-19T20:46:21.992Z,71.80
2018-06-19T20:48:51.175Z,72.09
2018-06-19T20:51:20.335Z,72.64
2018-06-19T20:53:49.493Z,71.62
2018-06-19T20:56:18.667Z,72.43
2018-06-19T20:58:48.515Z,73.30
2018-06-19T21:01:17.691Z,72.71
2018-06-19T21:03:46.936Z,72.85
2018-06-19T21:06:16.100Z,72.66
2018-06-19T21:08:45.284Z,72.24
2018-06-19T21:11:14.466Z,71.33
2018-06-19T21:13:43.663Z,71.64
2018-06-19T21:16:12.831Z,71.56
2018-06-19T21:18:41.999Z,72.08
2018-06-19T21:21:11.296Z,71.67
2018-06-19T21:23:40.518Z,71.66
2018-06-19T21:26:09.667Z,72.58
2018-06-19T21:28:38.837Z,71.86
2018-06-19T21:31:08.051Z,72.63
2018-06-19T21:33:37.247Z,72.51
2018-06-19T21:36:06.410Z,73.48
2018-06-19T21:38:35.579Z,73.56
2018-06-19T21:41:04.839Z,73.35
2018-06-19T21:43:33.995Z,73.83
2018-06-19T21:46:03.157Z,74.00
2018-06-19T21:48:32.306Z,73.92
2018-06-19T21:51:01.464Z,73.73
2018-06-19T21:53:30.623Z,74.43
2018-06-19T21:55:59.780Z,74.81
2018-06-19T21:58:28.711Z,74.64
2018-06-19T22:00:57.875Z,75.15
2018-06-19T22:03:27.044Z,75.94
2018-06-19T22:05:56.196Z,75.37
2018-06-19T22:08:29.460Z,76.07
2018-06-19T22:10:58.395Z,76.20
2018-06-19T22:13:27.564Z,76.43
2018-06-19T22:15:56.723Z,76.58
2018-06-19T22:18:25.898Z,76.63
2018-06-19T22:20:55.059Z,76.93
2018-06-19T22:23:24.235Z,76.22
2018-06-19T22:25:53.379Z,76.76
2018-06-19T22:28:22.559Z,77.03
2018-06-19T22:30:51.725Z,77.27
2018-06-19T22:33:20.893Z,77.42
2018-06-19T22:35:50.048Z,77.29
2018-06-19T22:38:19.196Z,77.27
2018-06-19T22:40:48.511Z,77.84
2018-06-19T22:43:17.435Z,77.64
2018-06-19T22:45:46.607Z,77.62
2018-06-19T22:48:15.530Z,77.84
2018-06-19T22:50:44.683Z,77.32
2018-06-19T22:53:13.840Z,78.02
2018-06-19T22:55:43.014Z,78.23
2018-06-19T22:58:12.172Z,77.77
2018-06-19T23:00:41.323Z,77.75
2018-06-19T23:03:10.466Z,78.45
2018-06-19T23:05:39.407Z,78.68
2018-06-19T23:08:08.561Z,78.29
2018-06-19T23:10:37.491Z,78.04
2018-06-19T23:13:06.648Z,78.43
2018-06-19T23:15:35.580Z,77.86
2018-06-19T23:18:04.715Z,77.41
2018-06-19T23:20:33.878Z,77.55
2018-06-19T23:23:03.039Z,78.13
2018-06-19T23:25:32.192Z,77.69
2018-06-19T23:28:01.344Z,78.23
2018-06-19T23:30:30.517Z,78.58
2018-06-19T23:32:59.676Z,78.51
2018-06-19T23:35:28.847Z,79.17
2018-06-19T23:37:57.993Z,79.36
2018-06-19T23:40:27.140Z,79.34
2018-06-19T23:42:56.485Z,79.72
2018-06-19T23:45:25.640Z,79.54
2018-06-19T23:47:54.791Z,79.78
2018-06-19T23:50:23.948Z,79.65
2018-06-19T23:52:53.092Z,79.37
2018-06-19T23:55:22.262Z,79.52
2018-06-19T23:57:51.426Z,80.19
